sensor_id;sensor_type;location;lat;lon;timestamp;P1;durP1;ratioP1;P2;durP2;ratioP2
30934;SDS011;51033;42.648;23.292;2022-11-04T00:01:31;14.27;;;7.78;;
30934;SDS011;51033;42.648;23.292;2022-11-04T00:03:57;12.60;;;6.55;;
30934;SDS011;51033;42.648;23.292;2022-11-04T00:06:22;13.43;;;7.22;;
30934;SDS011;51033;42.648;23.292;2022-11-04T00:08:49;14.40;;;7.63;;
30934;SDS011;51033;42.648;23.292;2022-11-04T00:11:15;15.75;;;6.90;;
30934;SDS011;51033;42.648;23.292;2022-11-04T00:14:00;20.90;;;7.20;;
30934;SDS011;51033;42.648;23.292;2022-11-04T00:16:25;13.05;;;7.20;;
30934;SDS011;51033;42.648;23.292;2022-11-04T00:19:10;12.15;;;6.95;;
30934;SDS011;51033;42.648;23.292;2022-11-04T00:21:35;17.90;;;7.97;;
30934;SDS011;51033;42.648;23.292;2022-11-04T00:24:19;13.65;;;6.68;;
30934;SDS011;51033;42.648;23.292;2022-11-04T00:27:17;10.50;;;6.88;;
30934;SDS011;51033;42.648;23.292;2022-11-04T00:30:03;10.68;;;6.60;;
30934;SDS011;51033;42.648;23.292;2022-11-04T00:32:32;11.07;;;6.40;;
30934;SDS011;51033;42.648;23.292;2022-11-04T00:35:17;13.02;;;6.95;;
30934;SDS011;51033;42.648;23.292;2022-11-04T00:37:43;13.57;;;7.05;;
30934;SDS011;51033;42.648;23.292;2022-11-04T00:40:10;10.15;;;6.60;;
30934;SDS011;51033;42.648;23.292;2022-11-04T00:42:37;9.98;;;6.38;;
30934;SDS011;51033;42.648;23.292;2022-11-04T00:45:03;11.88;;;6.05;;
30934;SDS011;51033;42.648;23.292;2022-11-04T00:47:29;13.32;;;7.18;;
30934;SDS011;51033;42.648;23.292;2022-11-04T00:49:55;9.82;;;6.60;;
30934;SDS011;51033;42.648;23.292;2022-11-04T00:52:20;13.23;;;6.80;;
30934;SDS011;51033;42.648;23.292;2022-11-04T00:54:46;11.27;;;6.40;;
30934;SDS011;51033;42.648;23.292;2022-11-04T00:57:12;12.68;;;6.53;;
30934;SDS011;51033;42.648;23.292;2022-11-04T00:59:38;14.18;;;5.78;;
30934;SDS011;51033;42.648;23.292;2022-11-04T01:02:05;13.55;;;6.63;;
30934;SDS011;51033;42.648;23.292;2022-11-04T01:04:31;16.00;;;6.93;;
30934;SDS011;51033;42.648;23.292;2022-11-04T01:06:56;12.25;;;7.13;;
30934;SDS011;51033;42.648;23.292;2022-11-04T01:09:22;16.63;;;7.00;;
30934;SDS011;51033;42.648;23.292;2022-11-04T01:11:47;12.07;;;7.22;;
30934;SDS011;51033;42.648;23.292;2022-11-04T01:14:13;20.40;;;6.75;;
30934;SDS011;51033;42.648;23.292;2022-11-04T01:16:38;14.68;;;7.03;;
30934;SDS011;51033;42.648;23.292;2022-11-04T01:19:04;13.40;;;6.28;;
30934;SDS011;51033;42.648;23.292;2022-11-04T01:21:30;17.70;;;6.95;;
30934;SDS011;51033;42.648;23.292;2022-11-04T01:23:56;13.27;;;7.10;;
30934;SDS011;51033;42.648;23.292;2022-11-04T01:26:22;13.05;;;7.80;;
30934;SDS011;51033;42.648;23.292;2022-11-04T01:28:50;15.48;;;7.10;;
30934;SDS011;51033;42.648;23.292;2022-11-04T01:31:18;13.20;;;6.95;;
30934;SDS011;51033;42.648;23.292;2022-11-04T01:33:48;14.50;;;6.28;;
30934;SDS011;51033;42.648;23.292;2022-11-04T01:36:15;13.73;;;7.50;;
30934;SDS011;51033;42.648;23.292;2022-11-04T01:38:40;12.05;;;6.72;;
30934;SDS011;51033;42.648;23.292;2022-11-04T01:41:07;10.07;;;6.50;;
30934;SDS011;51033;42.648;23.292;2022-11-04T01:49:03;16.33;;;7.40;;
30934;SDS011;51033;42.648;23.292;2022-11-04T01:51:54;10.82;;;7.05;;
30934;SDS011;51033;42.648;23.292;2022-11-04T01:54:24;11.27;;;7.28;;
30934;SDS011;51033;42.648;23.292;2022-11-04T01:56:50;15.60;;;7.72;;
30934;SDS011;51033;42.648;23.292;2022-11-04T01:59:20;14.00;;;7.05;;
30934;SDS011;51033;42.648;23.292;2022-11-04T02:01:49;13.35;;;6.88;;
30934;SDS011;51033;42.648;23.292;2022-11-04T02:04:15;13.48;;;7.05;;
30934;SDS011;51033;42.648;23.292;2022-11-04T02:06:51;11.98;;;7.13;;
30934;SDS011;51033;42.648;23.292;2022-11-04T02:09:19;11.43;;;7.43;;
30934;SDS011;51033;42.648;23.292;2022-11-04T02:11:46;28.45;;;7.80;;
30934;SDS011;51033;42.648;23.292;2022-11-04T02:14:31;12.73;;;7.23;;
30934;SDS011;51033;42.648;23.292;2022-11-04T02:19:58;14.27;;;7.53;;
30934;SDS011;51033;42.648;23.292;2022-11-04T02:30:47;7.78;;;5.53;;
30934;SDS011;51033;42.648;23.292;2022-11-04T02:35:57;13.05;;;7.10;;
30934;SDS011;51033;42.648;23.292;2022-11-04T02:44:37;12.68;;;7.53;;
30934;SDS011;51033;42.648;23.292;2022-11-04T02:47:05;18.30;;;7.25;;
30934;SDS011;51033;42.648;23.292;2022-11-04T02:52:34;11.93;;;8.07;;
30934;SDS011;51033;42.648;23.292;2022-11-04T02:55:06;8.68;;;6.32;;
30934;SDS011;51033;42.648;23.292;2022-11-04T02:57:38;17.10;;;7.45;;
30934;SDS011;51033;42.648;23.292;2022-11-04T03:00:08;16.08;;;7.40;;
30934;SDS011;51033;42.648;23.292;2022-11-04T03:02:44;12.95;;;7.45;;
30934;SDS011;51033;42.648;23.292;2022-11-04T03:05:16;19.15;;;9.25;;
30934;SDS011;51033;42.648;23.292;2022-11-04T03:07:46;17.42;;;7.15;;
30934;SDS011;51033;42.648;23.292;2022-11-04T03:10:17;11.25;;;6.97;;
30934;SDS011;51033;42.648;23.292;2022-11-04T03:12:50;12.77;;;7.57;;
30934;SDS011;51033;42.648;23.292;2022-11-04T03:15:23;19.55;;;9.02;;
30934;SDS011;51033;42.648;23.292;2022-11-04T03:18:35;15.13;;;8.20;;
30934;SDS011;51033;42.648;23.292;2022-11-04T03:20:41;14.23;;;8.18;;
30934;SDS011;51033;42.648;23.292;2022-11-04T03:23:10;13.02;;;8.23;;
30934;SDS011;51033;42.648;23.292;2022-11-04T03:25:38;14.75;;;8.38;;
30934;SDS011;51033;42.648;23.292;2022-11-04T03:30:53;14.88;;;8.30;;
30934;SDS011;51033;42.648;23.292;2022-11-04T03:33:35;16.20;;;8.38;;
30934;SDS011;51033;42.648;23.292;2022-11-04T03:36:06;17.50;;;8.32;;
30934;SDS011;51033;42.648;23.292;2022-11-04T03:38:33;11.80;;;7.68;;
30934;SDS011;51033;42.648;23.292;2022-11-04T03:41:00;11.93;;;6.78;;
30934;SDS011;51033;42.648;23.292;2022-11-04T03:43:29;13.68;;;8.57;;
30934;SDS011;51033;42.648;23.292;2022-11-04T03:45:56;13.60;;;7.63;;
30934;SDS011;51033;42.648;23.292;2022-11-04T03:48:22;12.43;;;7.82;;
30934;SDS011;51033;42.648;23.292;2022-11-04T03:50:48;18.92;;;7.65;;
30934;SDS011;51033;42.648;23.292;2022-11-04T03:53:19;16.95;;;8.02;;
30934;SDS011;51033;42.648;23.292;2022-11-04T04:01:21;17.65;;;8.43;;
30934;SDS011;51033;42.648;23.292;2022-11-04T04:03:58;13.18;;;8.65;;
30934;SDS011;51033;42.648;23.292;2022-11-04T04:06:32;19.95;;;8.75;;
30934;SDS011;51033;42.648;23.292;2022-11-04T04:09:11;20.00;;;7.43;;
30934;SDS011;51033;42.648;23.292;2022-11-04T04:12:00;12.38;;;8.80;;
30934;SDS011;51033;42.648;23.292;2022-11-04T04:14:45;12.35;;;8.20;;
30934;SDS011;51033;42.648;23.292;2022-11-04T04:19:51;17.05;;;8.57;;
30934;SDS011;51033;42.648;23.292;2022-11-04T04:22:24;17.88;;;9.27;;
30934;SDS011;51033;42.648;23.292;2022-11-04T04:24:56;16.80;;;9.13;;
30934;SDS011;51033;42.648;23.292;2022-11-04T04:27:42;19.95;;;9.63;;
30934;SDS011;51033;42.648;23.292;2022-11-04T04:30:11;17.38;;;8.52;;
30934;SDS011;51033;42.648;23.292;2022-11-04T04:32:46;23.63;;;10.38;;
30934;SDS011;51033;42.648;23.292;2022-11-04T04:35:15;19.77;;;10.40;;
30934;SDS011;51033;42.648;23.292;2022-11-04T04:38:01;21.57;;;10.37;;
30934;SDS011;51033;42.648;23.292;2022-11-04T04:40:50;24.08;;;9.75;;
30934;SDS011;51033;42.648;23.292;2022-11-04T04:43:38;15.50;;;9.13;;
30934;SDS011;51033;42.648;23.292;2022-11-04T04:46:26;15.50;;;9.50;;
30934;SDS011;51033;42.648;23.292;2022-11-04T04:48:53;17.15;;;9.82;;
30934;SDS011;51033;42.648;23.292;2022-11-04T04:51:18;15.57;;;9.35;;
30934;SDS011;51033;42.648;23.292;2022-11-04T04:53:44;19.02;;;9.18;;
30934;SDS011;51033;42.648;23.292;2022-11-04T04:56:09;15.05;;;8.80;;
30934;SDS011;51033;42.648;23.292;2022-11-04T04:58:35;20.90;;;10.27;;
30934;SDS011;51033;42.648;23.292;2022-11-04T05:01:00;16.15;;;10.07;;
30934;SDS011;51033;42.648;23.292;2022-11-04T05:03:27;18.70;;;10.30;;
30934;SDS011;51033;42.648;23.292;2022-11-04T05:05:52;17.55;;;9.48;;
30934;SDS011;51033;42.648;23.292;2022-11-04T05:08:18;16.38;;;10.43;;
30934;SDS011;51033;42.648;23.292;2022-11-04T05:10:43;34.50;;;11.15;;
30934;SDS011;51033;42.648;23.292;2022-11-04T05:13:08;20.48;;;10.60;;
30934;SDS011;51033;42.648;23.292;2022-11-04T05:15:53;22.45;;;11.60;;
30934;SDS011;51033;42.648;23.292;2022-11-04T05:18:18;23.23;;;11.48;;
30934;SDS011;51033;42.648;23.292;2022-11-04T05:20:44;18.95;;;10.88;;
30934;SDS011;51033;42.648;23.292;2022-11-04T05:23:09;15.73;;;10.55;;
30934;SDS011;51033;42.648;23.292;2022-11-04T05:25:39;19.73;;;12.48;;
30934;SDS011;51033;42.648;23.292;2022-11-04T05:28:06;19.83;;;11.45;;
30934;SDS011;51033;42.648;23.292;2022-11-04T05:30:34;19.40;;;12.30;;
30934;SDS011;51033;42.648;23.292;2022-11-04T05:32:59;16.27;;;10.52;;
30934;SDS011;51033;42.648;23.292;2022-11-04T05:35:25;24.55;;;12.20;;
30934;SDS011;51033;42.648;23.292;2022-11-04T05:37:50;21.65;;;13.20;;
30934;SDS011;51033;42.648;23.292;2022-11-04T05:40:16;20.50;;;11.60;;
30934;SDS011;51033;42.648;23.292;2022-11-04T05:42:41;19.95;;;12.15;;
30934;SDS011;51033;42.648;23.292;2022-11-04T05:45:07;15.80;;;11.77;;
30934;SDS011;51033;42.648;23.292;2022-11-04T05:47:33;22.60;;;12.93;;
30934;SDS011;51033;42.648;23.292;2022-11-04T05:49:58;24.23;;;12.13;;
30934;SDS011;51033;42.648;23.292;2022-11-04T05:52:24;23.60;;;11.48;;
30934;SDS011;51033;42.648;23.292;2022-11-04T05:54:49;23.55;;;12.85;;
30934;SDS011;51033;42.648;23.292;2022-11-04T05:57:14;20.85;;;13.25;;
30934;SDS011;51033;42.648;23.292;2022-11-04T05:59:40;20.58;;;12.10;;
30934;SDS011;51033;42.648;23.292;2022-11-04T06:02:05;21.90;;;12.82;;
30934;SDS011;51033;42.648;23.292;2022-11-04T06:04:31;23.90;;;13.27;;
30934;SDS011;51033;42.648;23.292;2022-11-04T06:06:57;28.67;;;15.05;;
30934;SDS011;51033;42.648;23.292;2022-11-04T06:09:22;22.23;;;12.68;;
30934;SDS011;51033;42.648;23.292;2022-11-04T06:12:04;21.52;;;13.60;;
30934;SDS011;51033;42.648;23.292;2022-11-04T06:14:29;20.27;;;12.18;;
30934;SDS011;51033;42.648;23.292;2022-11-04T06:16:54;23.38;;;13.45;;
30934;SDS011;51033;42.648;23.292;2022-11-04T06:19:20;19.77;;;12.63;;
30934;SDS011;51033;42.648;23.292;2022-11-04T06:21:45;28.08;;;13.90;;
30934;SDS011;51033;42.648;23.292;2022-11-04T06:24:11;32.78;;;16.40;;
30934;SDS011;51033;42.648;23.292;2022-11-04T06:26:36;29.15;;;15.77;;
30934;SDS011;51033;42.648;23.292;2022-11-04T06:29:03;25.55;;;14.90;;
30934;SDS011;51033;42.648;23.292;2022-11-04T06:31:28;27.65;;;14.45;;
30934;SDS011;51033;42.648;23.292;2022-11-04T06:33:54;23.50;;;14.27;;
30934;SDS011;51033;42.648;23.292;2022-11-04T06:36:19;33.22;;;15.25;;
30934;SDS011;51033;42.648;23.292;2022-11-04T06:38:45;28.40;;;14.95;;
30934;SDS011;51033;42.648;23.292;2022-11-04T06:41:12;23.48;;;14.57;;
30934;SDS011;51033;42.648;23.292;2022-11-04T06:43:39;27.20;;;14.80;;
30934;SDS011;51033;42.648;23.292;2022-11-04T06:46:04;25.92;;;14.50;;
30934;SDS011;51033;42.648;23.292;2022-11-04T06:48:30;29.50;;;15.90;;
30934;SDS011;51033;42.648;23.292;2022-11-04T06:50:56;24.35;;;15.45;;
30934;SDS011;51033;42.648;23.292;2022-11-04T06:53:23;30.85;;;16.77;;
30934;SDS011;51033;42.648;23.292;2022-11-04T06:55:48;28.10;;;15.77;;
30934;SDS011;51033;42.648;23.292;2022-11-04T06:58:15;20.27;;;14.38;;
30934;SDS011;51033;42.648;23.292;2022-11-04T07:00:40;27.75;;;14.10;;
30934;SDS011;51033;42.648;23.292;2022-11-04T07:03:07;24.38;;;15.30;;
30934;SDS011;51033;42.648;23.292;2022-11-04T07:05:33;32.20;;;16.50;;
30934;SDS011;51033;42.648;23.292;2022-11-04T07:07:58;29.58;;;16.85;;
30934;SDS011;51033;42.648;23.292;2022-11-04T07:10:24;27.90;;;16.40;;
30934;SDS011;51033;42.648;23.292;2022-11-04T07:12:49;26.95;;;17.00;;
30934;SDS011;51033;42.648;23.292;2022-11-04T07:15:14;27.90;;;16.77;;
30934;SDS011;51033;42.648;23.292;2022-11-04T07:17:40;27.13;;;17.17;;
30934;SDS011;51033;42.648;23.292;2022-11-04T07:20:05;27.95;;;15.55;;
30934;SDS011;51033;42.648;23.292;2022-11-04T07:22:31;32.28;;;17.85;;
30934;SDS011;51033;42.648;23.292;2022-11-04T07:24:57;24.23;;;17.15;;
30934;SDS011;51033;42.648;23.292;2022-11-04T07:27:22;32.95;;;17.20;;
30934;SDS011;51033;42.648;23.292;2022-11-04T07:29:47;34.50;;;18.73;;
30934;SDS011;51033;42.648;23.292;2022-11-04T07:32:13;28.83;;;16.42;;
30934;SDS011;51033;42.648;23.292;2022-11-04T07:34:38;30.38;;;17.80;;
30934;SDS011;51033;42.648;23.292;2022-11-04T07:37:04;28.13;;;15.52;;
30934;SDS011;51033;42.648;23.292;2022-11-04T07:39:29;28.70;;;16.45;;
30934;SDS011;51033;42.648;23.292;2022-11-04T07:41:55;32.28;;;17.35;;
30934;SDS011;51033;42.648;23.292;2022-11-04T07:44:20;32.05;;;17.73;;
30934;SDS011;51033;42.648;23.292;2022-11-04T07:46:47;28.80;;;17.20;;
30934;SDS011;51033;42.648;23.292;2022-11-04T07:49:12;30.00;;;17.05;;
30934;SDS011;51033;42.648;23.292;2022-11-04T07:51:38;30.13;;;17.48;;
30934;SDS011;51033;42.648;23.292;2022-11-04T07:54:03;29.08;;;16.73;;
30934;SDS011;51033;42.648;23.292;2022-11-04T07:56:29;41.80;;;18.20;;
30934;SDS011;51033;42.648;23.292;2022-11-04T07:58:54;29.17;;;17.50;;
30934;SDS011;51033;42.648;23.292;2022-11-04T08:01:20;33.78;;;18.75;;
30934;SDS011;51033;42.648;23.292;2022-11-04T08:03:49;31.98;;;17.73;;
30934;SDS011;51033;42.648;23.292;2022-11-04T08:06:16;29.73;;;17.92;;
30934;SDS011;51033;42.648;23.292;2022-11-04T08:08:44;30.10;;;17.30;;
30934;SDS011;51033;42.648;23.292;2022-11-04T08:11:13;35.17;;;19.33;;
30934;SDS011;51033;42.648;23.292;2022-11-04T08:13:41;31.52;;;17.60;;
30934;SDS011;51033;42.648;23.292;2022-11-04T08:16:08;37.13;;;18.30;;
30934;SDS011;51033;42.648;23.292;2022-11-04T08:18:37;29.50;;;19.00;;
30934;SDS011;51033;42.648;23.292;2022-11-04T08:21:03;33.10;;;18.20;;
30934;SDS011;51033;42.648;23.292;2022-11-04T08:23:30;31.98;;;18.52;;
30934;SDS011;51033;42.648;23.292;2022-11-04T08:25:56;33.05;;;18.75;;
30934;SDS011;51033;42.648;23.292;2022-11-04T08:28:22;28.08;;;18.63;;
30934;SDS011;51033;42.648;23.292;2022-11-04T08:33:26;40.72;;;19.48;;
30934;SDS011;51033;42.648;23.292;2022-11-04T08:35:53;43.75;;;19.25;;
30934;SDS011;51033;42.648;23.292;2022-11-04T08:38:20;34.03;;;19.35;;
30934;SDS011;51033;42.648;23.292;2022-11-04T08:40:46;32.15;;;19.33;;
30934;SDS011;51033;42.648;23.292;2022-11-04T08:43:11;48.78;;;19.02;;
30934;SDS011;51033;42.648;23.292;2022-11-04T08:45:41;33.58;;;18.75;;
30934;SDS011;51033;42.648;23.292;2022-11-04T08:48:09;33.88;;;18.65;;
30934;SDS011;51033;42.648;23.292;2022-11-04T08:50:34;35.55;;;19.50;;
30934;SDS011;51033;42.648;23.292;2022-11-04T08:53:00;34.92;;;19.27;;
30934;SDS011;51033;42.648;23.292;2022-11-04T08:55:30;31.95;;;19.92;;
30934;SDS011;51033;42.648;23.292;2022-11-04T08:57:56;45.45;;;19.65;;
30934;SDS011;51033;42.648;23.292;2022-11-04T09:00:23;35.75;;;18.58;;
30934;SDS011;51033;42.648;23.292;2022-11-04T09:02:49;31.10;;;19.35;;
30934;SDS011;51033;42.648;23.292;2022-11-04T09:05:14;32.50;;;18.27;;
30934;SDS011;51033;42.648;23.292;2022-11-04T09:07:40;36.45;;;18.65;;
30934;SDS011;51033;42.648;23.292;2022-11-04T09:10:07;34.97;;;18.50;;
30934;SDS011;51033;42.648;23.292;2022-11-04T09:12:33;37.17;;;18.90;;
30934;SDS011;51033;42.648;23.292;2022-11-04T09:14:58;34.53;;;18.67;;
30934;SDS011;51033;42.648;23.292;2022-11-04T09:17:24;39.65;;;19.40;;
30934;SDS011;51033;42.648;23.292;2022-11-04T09:19:49;36.15;;;18.63;;
30934;SDS011;51033;42.648;23.292;2022-11-04T09:22:15;33.35;;;18.27;;
30934;SDS011;51033;42.648;23.292;2022-11-04T09:24:40;31.52;;;18.13;;
30934;SDS011;51033;42.648;23.292;2022-11-04T09:27:06;36.75;;;18.55;;
30934;SDS011;51033;42.648;23.292;2022-11-04T09:29:31;36.13;;;17.77;;
30934;SDS011;51033;42.648;23.292;2022-11-04T09:32:00;32.28;;;18.58;;
30934;SDS011;51033;42.648;23.292;2022-11-04T09:34:26;36.03;;;17.25;;
30934;SDS011;51033;42.648;23.292;2022-11-04T09:36:55;32.65;;;18.25;;
30934;SDS011;51033;42.648;23.292;2022-11-04T09:39:22;38.72;;;17.92;;
30934;SDS011;51033;42.648;23.292;2022-11-04T09:44:43;33.60;;;17.52;;
30934;SDS011;51033;42.648;23.292;2022-11-04T09:47:13;35.97;;;17.48;;
30934;SDS011;51033;42.648;23.292;2022-11-04T09:49:42;29.35;;;16.65;;
30934;SDS011;51033;42.648;23.292;2022-11-04T09:52:20;32.28;;;15.88;;
30934;SDS011;51033;42.648;23.292;2022-11-04T09:54:52;27.67;;;16.35;;
30934;SDS011;51033;42.648;23.292;2022-11-04T09:57:23;35.20;;;16.65;;
30934;SDS011;51033;42.648;23.292;2022-11-04T09:59:49;34.38;;;16.88;;
30934;SDS011;51033;42.648;23.292;2022-11-04T10:21:42;23.83;;;14.55;;
30934;SDS011;51033;42.648;23.292;2022-11-04T10:27:03;28.48;;;15.27;;
30934;SDS011;51033;42.648;23.292;2022-11-04T10:29:40;34.83;;;18.25;;
30934;SDS011;51033;42.648;23.292;2022-11-04T10:34:56;30.42;;;16.80;;
30934;SDS011;51033;42.648;23.292;2022-11-04T10:37:45;25.73;;;14.75;;
30934;SDS011;51033;42.648;23.292;2022-11-04T10:42:59;27.77;;;14.02;;
30934;SDS011;51033;42.648;23.292;2022-11-04T10:45:26;25.08;;;14.77;;
30934;SDS011;51033;42.648;23.292;2022-11-04T10:48:02;21.83;;;13.70;;
30934;SDS011;51033;42.648;23.292;2022-11-04T10:50:36;24.95;;;14.95;;
30934;SDS011;51033;42.648;23.292;2022-11-04T10:53:17;26.77;;;14.82;;
30934;SDS011;51033;42.648;23.292;2022-11-04T10:55:53;28.38;;;15.18;;
30934;SDS011;51033;42.648;23.292;2022-11-04T10:58:31;24.42;;;15.50;;
30934;SDS011;51033;42.648;23.292;2022-11-04T11:01:20;22.70;;;14.70;;
30934;SDS011;51033;42.648;23.292;2022-11-04T11:03:57;25.92;;;14.02;;
30934;SDS011;51033;42.648;23.292;2022-11-04T11:06:27;29.83;;;15.13;;
30934;SDS011;51033;42.648;23.292;2022-11-04T11:08:54;19.92;;;12.98;;
30934;SDS011;51033;42.648;23.292;2022-11-04T11:16:51;24.58;;;14.95;;
30934;SDS011;51033;42.648;23.292;2022-11-04T11:19:18;23.45;;;14.60;;
30934;SDS011;51033;42.648;23.292;2022-11-04T11:21:46;23.67;;;14.07;;
30934;SDS011;51033;42.648;23.292;2022-11-04T11:24:17;24.02;;;13.98;;
30934;SDS011;51033;42.648;23.292;2022-11-04T11:26:45;27.15;;;14.30;;
30934;SDS011;51033;42.648;23.292;2022-11-04T11:29:15;24.73;;;13.48;;
30934;SDS011;51033;42.648;23.292;2022-11-04T11:31:45;27.00;;;13.27;;
30934;SDS011;51033;42.648;23.292;2022-11-04T11:34:19;32.85;;;14.00;;
30934;SDS011;51033;42.648;23.292;2022-11-04T11:36:51;21.73;;;14.13;;
30934;SDS011;51033;42.648;23.292;2022-11-04T11:39:19;30.67;;;13.95;;
30934;SDS011;51033;42.648;23.292;2022-11-04T11:41:52;32.20;;;14.27;;
30934;SDS011;51033;42.648;23.292;2022-11-04T11:47:50;22.20;;;13.75;;
30934;SDS011;51033;42.648;23.292;2022-11-04T11:52:38;25.05;;;11.88;;
30934;SDS011;51033;42.648;23.292;2022-11-04T11:57:41;23.25;;;11.55;;
30934;SDS011;51033;42.648;23.292;2022-11-04T12:00:13;24.77;;;13.10;;
30934;SDS011;51033;42.648;23.292;2022-11-04T12:05:29;26.20;;;12.15;;
30934;SDS011;51033;42.648;23.292;2022-11-04T12:13:15;22.30;;;11.77;;
30934;SDS011;51033;42.648;23.292;2022-11-04T12:21:17;21.42;;;10.48;;
30934;SDS011;51033;42.648;23.292;2022-11-04T12:26:47;21.20;;;11.30;;
30934;SDS011;51033;42.648;23.292;2022-11-04T12:29:56;17.23;;;9.88;;
30934;SDS011;51033;42.648;23.292;2022-11-04T12:32:39;19.52;;;10.43;;
30934;SDS011;51033;42.648;23.292;2022-11-04T12:40:25;21.85;;;10.05;;
30934;SDS011;51033;42.648;23.292;2022-11-04T12:48:10;17.08;;;9.52;;
30934;SDS011;51033;42.648;23.292;2022-11-04T12:51:04;15.95;;;8.57;;
30934;SDS011;51033;42.648;23.292;2022-11-04T12:56:19;18.90;;;9.95;;
30934;SDS011;51033;42.648;23.292;2022-11-04T13:01:41;19.92;;;8.65;;
30934;SDS011;51033;42.648;23.292;2022-11-04T13:04:19;15.45;;;8.23;;
30934;SDS011;51033;42.648;23.292;2022-11-04T13:06:56;18.15;;;8.93;;
30934;SDS011;51033;42.648;23.292;2022-11-04T13:09:42;16.38;;;9.98;;
30934;SDS011;51033;42.648;23.292;2022-11-04T13:12:17;22.30;;;8.52;;
30934;SDS011;51033;42.648;23.292;2022-11-04T13:14:47;19.02;;;9.77;;
30934;SDS011;51033;42.648;23.292;2022-11-04T13:17:14;18.35;;;9.85;;
30934;SDS011;51033;42.648;23.292;2022-11-04T13:22:14;19.13;;;9.90;;
30934;SDS011;51033;42.648;23.292;2022-11-04T13:24:48;19.02;;;9.82;;
30934;SDS011;51033;42.648;23.292;2022-11-04T13:29:46;14.48;;;9.60;;
30934;SDS011;51033;42.648;23.292;2022-11-04T13:32:28;15.27;;;9.13;;
30934;SDS011;51033;42.648;23.292;2022-11-04T13:35:10;15.98;;;9.73;;
30934;SDS011;51033;42.648;23.292;2022-11-04T13:37:40;20.58;;;9.40;;
30934;SDS011;51033;42.648;23.292;2022-11-04T13:42:51;18.77;;;8.90;;
30934;SDS011;51033;42.648;23.292;2022-11-04T13:45:51;18.83;;;8.52;;
30934;SDS011;51033;42.648;23.292;2022-11-04T13:48:19;19.38;;;9.55;;
30934;SDS011;51033;42.648;23.292;2022-11-04T13:50:55;17.15;;;8.95;;
30934;SDS011;51033;42.648;23.292;2022-11-04T13:53:38;23.67;;;9.73;;
30934;SDS011;51033;42.648;23.292;2022-11-04T13:56:06;25.83;;;10.00;;
30934;SDS011;51033;42.648;23.292;2022-11-04T13:58:32;22.13;;;10.55;;
30934;SDS011;51033;42.648;23.292;2022-11-04T14:01:11;18.73;;;9.60;;
30934;SDS011;51033;42.648;23.292;2022-11-04T14:03:50;17.48;;;8.73;;
30934;SDS011;51033;42.648;23.292;2022-11-04T14:06:45;16.10;;;9.43;;
30934;SDS011;51033;42.648;23.292;2022-11-04T14:22:53;13.13;;;8.00;;
30934;SDS011;51033;42.648;23.292;2022-11-04T14:25:38;19.42;;;11.57;;
30934;SDS011;51033;42.648;23.292;2022-11-04T14:30:35;19.63;;;9.52;;
30934;SDS011;51033;42.648;23.292;2022-11-04T14:35:47;19.85;;;8.73;;
30934;SDS011;51033;42.648;23.292;2022-11-04T14:38:31;32.20;;;9.70;;
30934;SDS011;51033;42.648;23.292;2022-11-04T14:43:48;22.48;;;11.55;;
30934;SDS011;51033;42.648;23.292;2022-11-04T14:46:24;27.38;;;9.85;;
30934;SDS011;51033;42.648;23.292;2022-11-04T14:48:54;21.30;;;10.07;;
30934;SDS011;51033;42.648;23.292;2022-11-04T14:51:25;21.13;;;10.65;;
30934;SDS011;51033;42.648;23.292;2022-11-04T14:54:04;24.38;;;10.45;;
30934;SDS011;51033;42.648;23.292;2022-11-04T14:56:34;33.78;;;9.68;;
30934;SDS011;51033;42.648;23.292;2022-11-04T14:59:01;25.30;;;9.70;;
30934;SDS011;51033;42.648;23.292;2022-11-04T15:01:30;17.17;;;9.20;;
30934;SDS011;51033;42.648;23.292;2022-11-04T15:04:02;20.50;;;8.77;;
30934;SDS011;51033;42.648;23.292;2022-11-04T15:06:30;17.95;;;8.85;;
30934;SDS011;51033;42.648;23.292;2022-11-04T15:08:56;18.00;;;9.07;;
30934;SDS011;51033;42.648;23.292;2022-11-04T15:11:23;19.77;;;8.98;;
30934;SDS011;51033;42.648;23.292;2022-11-04T15:14:21;15.32;;;7.72;;
30934;SDS011;51033;42.648;23.292;2022-11-04T15:16:52;20.27;;;7.90;;
30934;SDS011;51033;42.648;23.292;2022-11-04T15:19:30;17.42;;;7.55;;
30934;SDS011;51033;42.648;23.292;2022-11-04T15:22:02;9.73;;;6.20;;
30934;SDS011;51033;42.648;23.292;2022-11-04T15:24:29;45.15;;;11.18;;
30934;SDS011;51033;42.648;23.292;2022-11-04T15:26:58;38.85;;;7.63;;
30934;SDS011;51033;42.648;23.292;2022-11-04T15:29:28;21.33;;;7.32;;
30934;SDS011;51033;42.648;23.292;2022-11-04T15:31:55;19.08;;;7.43;;
30934;SDS011;51033;42.648;23.292;2022-11-04T15:34:26;22.98;;;8.63;;
30934;SDS011;51033;42.648;23.292;2022-11-04T15:36:55;21.63;;;8.70;;
30934;SDS011;51033;42.648;23.292;2022-11-04T15:39:28;20.35;;;8.13;;
30934;SDS011;51033;42.648;23.292;2022-11-04T15:42:04;20.02;;;8.43;;
30934;SDS011;51033;42.648;23.292;2022-11-04T15:44:51;22.65;;;9.10;;
30934;SDS011;51033;42.648;23.292;2022-11-04T15:49:46;22.80;;;8.90;;
30934;SDS011;51033;42.648;23.292;2022-11-04T15:52:16;22.73;;;9.27;;
30934;SDS011;51033;42.648;23.292;2022-11-04T15:54:46;16.77;;;7.38;;
30934;SDS011;51033;42.648;23.292;2022-11-04T15:57:18;19.35;;;6.60;;
30934;SDS011;51033;42.648;23.292;2022-11-04T16:02:26;11.32;;;5.47;;
30934;SDS011;51033;42.648;23.292;2022-11-04T16:05:00;9.23;;;4.95;;
30934;SDS011;51033;42.648;23.292;2022-11-04T16:13:00;10.98;;;6.32;;
30934;SDS011;51033;42.648;23.292;2022-11-04T16:21:27;20.17;;;9.40;;
30934;SDS011;51033;42.648;23.292;2022-11-04T16:24:04;21.20;;;9.90;;
30934;SDS011;51033;42.648;23.292;2022-11-04T16:26:37;17.58;;;10.90;;
30934;SDS011;51033;42.648;23.292;2022-11-04T16:29:09;19.92;;;9.02;;
30934;SDS011;51033;42.648;23.292;2022-11-04T16:34:52;23.67;;;9.75;;
30934;SDS011;51033;42.648;23.292;2022-11-04T16:37:21;25.77;;;12.45;;
30934;SDS011;51033;42.648;23.292;2022-11-04T16:39:46;19.70;;;11.82;;
30934;SDS011;51033;42.648;23.292;2022-11-04T16:42:14;25.95;;;11.63;;
30934;SDS011;51033;42.648;23.292;2022-11-04T16:44:47;19.42;;;11.65;;
30934;SDS011;51033;42.648;23.292;2022-11-04T16:47:14;29.88;;;13.32;;
30934;SDS011;51033;42.648;23.292;2022-11-04T16:49:42;24.15;;;12.30;;
30934;SDS011;51033;42.648;23.292;2022-11-04T16:52:10;21.73;;;13.43;;
30934;SDS011;51033;42.648;23.292;2022-11-04T16:54:49;20.50;;;11.90;;
30934;SDS011;51033;42.648;23.292;2022-11-04T16:57:15;26.67;;;11.50;;
30934;SDS011;51033;42.648;23.292;2022-11-04T16:59:41;35.20;;;19.55;;
30934;SDS011;51033;42.648;23.292;2022-11-04T17:02:18;37.15;;;21.50;;
30934;SDS011;51033;42.648;23.292;2022-11-04T17:04:49;26.10;;;13.50;;
30934;SDS011;51033;42.648;23.292;2022-11-04T17:07:15;27.92;;;12.63;;
30934;SDS011;51033;42.648;23.292;2022-11-04T17:09:40;35.75;;;15.73;;
30934;SDS011;51033;42.648;23.292;2022-11-04T17:12:06;28.38;;;15.05;;
30934;SDS011;51033;42.648;23.292;2022-11-04T17:14:31;26.23;;;14.25;;
30934;SDS011;51033;42.648;23.292;2022-11-04T17:16:57;22.17;;;11.27;;
30934;SDS011;51033;42.648;23.292;2022-11-04T17:19:22;18.67;;;10.85;;
30934;SDS011;51033;42.648;23.292;2022-11-04T17:21:47;22.27;;;11.35;;